sensor_id;sensor_type;location;lat;lon;timestamp;pressure;altitude;pressure_sealevel;temperature;humidity
24302;BME280;12421;49.732;20.078;2022-08-01T00:08:13;96616.34;;;17.57;83.63
24302;BME280;12421;49.732;20.078;2022-08-01T00:18:15;96596.86;;;17.57;83.44
24302;BME280;12421;49.732;20.078;2022-08-01T00:28:17;96599.17;;;17.54;83.19
24302;BME280;12421;49.732;20.078;2022-08-01T00:38:19;96576.84;;;17.37;83.21
24302;BME280;12421;49.732;20.078;2022-08-01T00:48:21;96594.75;;;17.43;83.06
24302;BME280;12421;49.732;20.078;2022-08-01T00:58:24;96609.17;;;17.38;82.67
24302;BME280;12421;49.732;20.078;2022-08-01T01:08:30;96603.31;;;17.30;83.12
24302;BME280;12421;49.732;20.078;2022-08-01T01:18:38;96612.02;;;17.23;82.94
24302;BME280;12421;49.732;20.078;2022-08-01T01:29:02;96606.63;;;17.15;82.85
24302;BME280;12421;49.732;20.078;2022-08-01T01:39:06;96598.88;;;17.09;82.67
24302;BME280;12421;49.732;20.078;2022-08-01T01:49:34;96601.00;;;17.01;82.27
24302;BME280;12421;49.732;20.078;2022-08-01T01:59:38;96610.77;;;16.90;82.58
24302;BME280;12421;49.732;20.078;2022-08-01T02:09:42;96608.87;;;16.82;82.38
24302;BME280;12421;49.732;20.078;2022-08-01T02:19:46;96601.61;;;16.76;82.70
24302;BME280;12421;49.732;20.078;2022-08-01T02:30:00;96598.72;;;16.70;82.57
24302;BME280;12421;49.732;20.078;2022-08-01T02:40:07;96605.48;;;16.67;82.86
24302;BME280;12421;49.732;20.078;2022-08-01T02:50:13;96607.13;;;16.59;82.61
24302;BME280;12421;49.732;20.078;2022-08-01T03:00:16;96604.54;;;16.58;83.03
24302;BME280;12421;49.732;20.078;2022-08-01T03:10:19;96622.45;;;16.65;82.91
24302;BME280;12421;49.732;20.078;2022-08-01T03:20:23;96620.43;;;16.59;82.39
24302;BME280;12421;49.732;20.078;2022-08-01T03:30:28;96620.44;;;16.48;82.15
24302;BME280;12421;49.732;20.078;2022-08-01T03:40:53;96620.92;;;16.34;81.85
24302;BME280;12421;49.732;20.078;2022-08-01T03:50:58;96626.99;;;16.26;81.59
24302;BME280;12421;49.732;20.078;2022-08-01T04:01:03;96638.05;;;16.27;82.24
24302;BME280;12421;49.732;20.078;2022-08-01T04:11:08;96640.04;;;16.32;82.56
24302;BME280;12421;49.732;20.078;2022-08-01T04:21:11;96651.09;;;16.33;82.55
24302;BME280;12421;49.732;20.078;2022-08-01T04:31:16;96651.22;;;16.30;82.08
24302;BME280;12421;49.732;20.078;2022-08-01T04:41:19;96648.70;;;16.37;82.28
24302;BME280;12421;49.732;20.078;2022-08-01T04:51:22;96652.61;;;16.52;82.06
24302;BME280;12421;49.732;20.078;2022-08-01T05:01:24;96651.89;;;16.48;81.37
24302;BME280;12421;49.732;20.078;2022-08-01T05:11:26;96648.40;;;16.70;82.21
24302;BME280;12421;49.732;20.078;2022-08-01T05:21:28;96653.23;;;17.35;80.90
24302;BME280;12421;49.732;20.078;2022-08-01T05:31:30;96650.59;;;17.66;80.61
24302;BME280;12421;49.732;20.078;2022-08-01T05:41:36;96654.06;;;18.27;79.74
24302;BME280;12421;49.732;20.078;2022-08-01T05:51:38;96658.22;;;18.81;79.08
24302;BME280;12421;49.732;20.078;2022-08-01T06:01:40;96662.19;;;19.18;77.76
24302;BME280;12421;49.732;20.078;2022-08-01T06:11:42;96668.45;;;19.09;78.73
24302;BME280;12421;49.732;20.078;2022-08-01T06:21:44;96673.44;;;19.44;79.00
24302;BME280;12421;49.732;20.078;2022-08-01T06:31:48;96672.66;;;20.92;76.63
24302;BME280;12421;49.732;20.078;2022-08-01T06:42:03;96662.89;;;22.35;73.41
24302;BME280;12421;49.732;20.078;2022-08-01T07:02:47;96684.52;;;24.49;68.16
24302;BME280;12421;49.732;20.078;2022-08-01T07:12:51;96698.28;;;25.33;65.94
24302;BME280;12421;49.732;20.078;2022-08-01T07:22:53;96686.52;;;26.12;63.90
24302;BME280;12421;49.732;20.078;2022-08-01T07:32:55;96681.12;;;26.46;62.58
24302;BME280;12421;49.732;20.078;2022-08-01T07:53:42;96681.39;;;27.28;58.05
24302;BME280;12421;49.732;20.078;2022-08-01T08:03:44;96671.41;;;27.56;56.05
24302;BME280;12421;49.732;20.078;2022-08-01T08:13:53;96672.69;;;27.83;54.55
24302;BME280;12421;49.732;20.078;2022-08-01T08:23:56;96672.34;;;27.66;52.90
24302;BME280;12421;49.732;20.078;2022-08-01T08:34:16;96673.95;;;26.69;55.70
24302;BME280;12421;49.732;20.078;2022-08-01T08:44:19;96669.55;;;26.28;58.29
24302;BME280;12421;49.732;20.078;2022-08-01T08:54:23;96671.64;;;26.01;57.22
24302;BME280;12421;49.732;20.078;2022-08-01T09:04:26;96666.76;;;25.82;59.10
24302;BME280;12421;49.732;20.078;2022-08-01T09:14:28;96676.03;;;25.72;54.44
24302;BME280;12421;49.732;20.078;2022-08-01T09:24:37;96675.39;;;25.69;56.74
24302;BME280;12421;49.732;20.078;2022-08-01T09:34:41;96680.27;;;25.64;57.27
24302;BME280;12421;49.732;20.078;2022-08-01T09:44:44;96677.93;;;25.65;56.39
24302;BME280;12421;49.732;20.078;2022-08-01T09:54:55;96685.38;;;25.61;54.07
24302;BME280;12421;49.732;20.078;2022-08-01T10:05:05;96686.59;;;25.81;51.90
24302;BME280;12421;49.732;20.078;2022-08-01T10:15:07;96691.22;;;25.97;52.90
24302;BME280;12421;49.732;20.078;2022-08-01T10:25:11;96686.11;;;26.29;52.46
24302;BME280;12421;49.732;20.078;2022-08-01T10:35:15;96691.93;;;26.46;50.24
24302;BME280;12421;49.732;20.078;2022-08-01T10:45:25;96683.94;;;26.79;50.64
24302;BME280;12421;49.732;20.078;2022-08-01T11:06:06;96685.06;;;27.10;53.32
24302;BME280;12421;49.732;20.078;2022-08-01T11:16:26;96674.38;;;27.31;47.55
24302;BME280;12421;49.732;20.078;2022-08-01T11:26:29;96671.20;;;27.90;47.88
24302;BME280;12421;49.732;20.078;2022-08-01T11:36:31;96680.78;;;28.26;47.04
24302;BME280;12421;49.732;20.078;2022-08-01T11:47:04;96682.81;;;28.39;48.08
24302;BME280;12421;49.732;20.078;2022-08-01T12:07:27;96685.22;;;28.01;50.51
24302;BME280;12421;49.732;20.078;2022-08-01T12:17:34;96680.95;;;27.82;50.05
24302;BME280;12421;49.732;20.078;2022-08-01T12:27:39;96677.09;;;27.95;49.28
24302;BME280;12421;49.732;20.078;2022-08-01T12:37:47;96683.59;;;28.04;48.84
24302;BME280;12421;49.732;20.078;2022-08-01T12:47:52;96684.43;;;28.10;43.58
24302;BME280;12421;49.732;20.078;2022-08-01T12:58:06;96678.58;;;27.99;47.53
24302;BME280;12421;49.732;20.078;2022-08-01T13:08:19;96665.59;;;28.14;47.86
24302;BME280;12421;49.732;20.078;2022-08-01T13:18:29;96665.68;;;28.18;45.41
24302;BME280;12421;49.732;20.078;2022-08-01T13:28:34;96661.32;;;28.06;46.32
24302;BME280;12421;49.732;20.078;2022-08-01T13:38:39;96658.30;;;28.20;47.62
24302;BME280;12421;49.732;20.078;2022-08-01T13:49:02;96656.45;;;27.89;45.25
24302;BME280;12421;49.732;20.078;2022-08-01T13:59:08;96665.84;;;27.74;45.21
24302;BME280;12421;49.732;20.078;2022-08-01T14:09:11;96680.55;;;27.92;49.17
24302;BME280;12421;49.732;20.078;2022-08-01T14:19:15;96681.50;;;28.02;46.72
24302;BME280;12421;49.732;20.078;2022-08-01T14:29:19;96693.70;;;27.85;45.91
24302;BME280;12421;49.732;20.078;2022-08-01T14:39:21;96694.09;;;27.92;51.14
24302;BME280;12421;49.732;20.078;2022-08-01T14:49:23;96701.73;;;27.81;50.49
24302;BME280;12421;49.732;20.078;2022-08-01T14:59:25;96693.73;;;27.91;47.96
24302;BME280;12421;49.732;20.078;2022-08-01T15:09:27;96697.41;;;27.79;46.85
24302;BME280;12421;49.732;20.078;2022-08-01T15:19:29;96692.86;;;27.96;47.75
24302;BME280;12421;49.732;20.078;2022-08-01T15:29:31;96697.00;;;28.11;48.38
24302;BME280;12421;49.732;20.078;2022-08-01T15:39:37;96690.24;;;28.00;46.07
24302;BME280;12421;49.732;20.078;2022-08-01T15:49:39;96692.61;;;27.82;50.14
24302;BME280;12421;49.732;20.078;2022-08-01T15:59:41;96687.03;;;27.30;52.15
24302;BME280;12421;49.732;20.078;2022-08-01T16:09:43;96690.34;;;27.00;53.04
24302;BME280;12421;49.732;20.078;2022-08-01T16:19:45;96691.68;;;26.95;53.43
24302;BME280;12421;49.732;20.078;2022-08-01T16:29:48;96687.76;;;27.21;52.79
24302;BME280;12421;49.732;20.078;2022-08-01T16:39:50;96681.23;;;27.12;52.87
24302;BME280;12421;49.732;20.078;2022-08-01T16:49:57;96683.57;;;26.84;54.64
24302;BME280;12421;49.732;20.078;2022-08-01T16:59:59;96684.34;;;26.51;55.24
24302;BME280;12421;49.732;20.078;2022-08-01T17:10:02;96683.63;;;26.20;55.70
24302;BME280;12421;49.732;20.078;2022-08-01T17:20:06;96689.64;;;25.71;56.52
24302;BME280;12421;49.732;20.078;2022-08-01T17:30:09;96695.56;;;25.15;58.16
24302;BME280;12421;49.732;20.078;2022-08-01T17:40:14;96712.61;;;24.52;59.36
24302;BME280;12421;49.732;20.078;2022-08-01T17:50:16;96720.37;;;24.05;61.51
24302;BME280;12421;49.732;20.078;2022-08-01T18:00:18;96724.63;;;23.62;61.86
24302;BME280;12421;49.732;20.078;2022-08-01T18:10:20;96723.03;;;23.24;62.58
24302;BME280;12421;49.732;20.078;2022-08-01T18:20:29;96730.74;;;22.81;63.92
24302;BME280;12421;49.732;20.078;2022-08-01T18:30:32;96725.74;;;22.45;65.37
24302;BME280;12421;49.732;20.078;2022-08-01T18:40:34;96736.59;;;22.07;66.28
24302;BME280;12421;49.732;20.078;2022-08-01T18:50:36;96749.77;;;21.80;67.36
24302;BME280;12421;49.732;20.078;2022-08-01T19:00:39;96760.24;;;21.54;67.71
24302;BME280;12421;49.732;20.078;2022-08-01T19:10:42;96770.36;;;21.33;68.70
24302;BME280;12421;49.732;20.078;2022-08-01T19:20:44;96780.12;;;21.10;69.50
24302;BME280;12421;49.732;20.078;2022-08-01T19:30:47;96795.72;;;20.94;70.35
24302;BME280;12421;49.732;20.078;2022-08-01T19:40:50;96801.05;;;20.78;70.99
24302;BME280;12421;49.732;20.078;2022-08-01T19:50:53;96816.06;;;20.72;71.87
24302;BME280;12421;49.732;20.078;2022-08-01T20:11:29;96817.42;;;20.55;72.28
24302;BME280;12421;49.732;20.078;2022-08-01T20:21:49;96829.30;;;20.32;72.37
24302;BME280;12421;49.732;20.078;2022-08-01T20:31:53;96829.37;;;20.22;72.88
24302;BME280;12421;49.732;20.078;2022-08-01T20:41:56;96838.50;;;20.00;73.29
24302;BME280;12421;49.732;20.078;2022-08-01T20:51:59;96846.26;;;19.96;74.15
24302;BME280;12421;49.732;20.078;2022-08-01T21:02:14;96844.62;;;19.93;74.35
24302;BME280;12421;49.732;20.078;2022-08-01T21:12:26;96847.45;;;19.90;74.75
24302;BME280;12421;49.732;20.078;2022-08-01T21:33:11;96849.39;;;19.87;74.99
24302;BME280;12421;49.732;20.078;2022-08-01T21:43:25;96854.94;;;19.74;75.00
24302;BME280;12421;49.732;20.078;2022-08-01T22:04:13;96857.22;;;19.54;75.69
24302;BME280;12421;49.732;20.078;2022-08-01T22:14:18;96864.65;;;19.48;76.06
24302;BME280;12421;49.732;20.078;2022-08-01T22:35:13;96873.92;;;19.31;76.83
24302;BME280;12421;49.732;20.078;2022-08-01T22:55:47;96878.44;;;19.18;77.10
24302;BME280;12421;49.732;20.078;2022-08-01T23:16:07;96869.38;;;19.12;77.17
24302;BME280;12421;49.732;20.078;2022-08-01T23:26:11;96860.58;;;19.00;76.61
24302;BME280;12421;49.732;20.078;2022-08-01T23:36:15;96863.29;;;18.80;76.34
24302;BME280;12421;49.732;20.078;2022-08-01T23:46:18;96864.02;;;18.64;76.37
24302;BME280;12421;49.732;20.078;2022-08-01T23:56:20;96857.39;;;18.42;76.29
